Time;durP1;ratioP1;P1;durP2;ratioP2;P2;SDS_P1;SDS_P2;PMS_P1;PMS_P2;Temp;Humidity;BMP_temperature;BMP_pressure;BME280_temperature;BME280_humidity;BME280_pressure;Samples;Min_cycle;Max_cycle;Signal;HPM_P1;HPM_P2
2022/11/07 00:00:25;;;;;;;0.20;0.20;;;8.90;99.90;;;;;;4994887;28;20066;-76
2022/11/07 00:02:55;;;;;;;12.13;10.93;;;8.90;99.90;;;;;;4996648;28;20035;-76
2022/11/07 00:05:28;;;;;;;0.20;0.20;;;9.00;99.90;;;;;;4996036;28;20047;-76
2022/11/07 00:08:30;;;;;;;0.20;0.20;;;9.00;99.90;;;;;;4996887;28;20071;-75
2022/11/07 00:11:06;;;;;;;0.20;0.20;;;9.00;99.90;;;;;;4993618;28;20106;-76
2022/11/07 00:13:32;;;;;;;0.40;0.40;;;9.00;99.90;;;;;;4994355;28;20015;-76
2022/11/07 00:16:04;;;;;;;1.15;1.15;;;9.00;99.90;;;;;;4995373;28;20034;-77
2022/11/07 00:18:52;;;;;;;1.15;1.15;;;9.00;99.90;;;;;;4994209;28;20023;-77
2022/11/07 00:21:18;;;;;;;0.57;0.57;;;9.00;99.90;;;;;;4991418;28;20015;-76
2022/11/07 00:23:45;;;;;;;0.65;0.65;;;9.10;99.90;;;;;;5010058;28;20021;-76
2022/11/07 00:26:14;;;;;;;0.20;0.20;;;9.10;99.90;;;;;;5058001;28;20041;-76
2022/11/07 00:28:42;;;;;;;8.10;7.75;;;8.30;99.90;;;;;;5075410;28;20073;-77
2022/11/07 00:31:28;;;;;;;0.20;0.20;;;9.10;99.90;;;;;;5060478;28;20013;-76
2022/11/07 00:33:53;;;;;;;0.65;0.65;;;9.10;99.90;;;;;;5057073;28;20029;-75
2022/11/07 00:36:44;;;;;;;0.20;0.20;;;9.10;99.90;;;;;;5058571;28;20081;-77
2022/11/07 00:39:10;;;;;;;4.30;4.18;;;9.20;99.90;;;;;;5058461;28;20033;-76
2022/11/07 00:41:57;;;;;;;0.35;0.35;;;9.20;99.90;;;;;;5073865;28;20029;-77
2022/11/07 00:44:23;;;;;;;0.50;0.50;;;9.20;99.90;;;;;;5162910;23;20021;-78
2022/11/07 00:46:51;;;;;;;0.10;0.10;;;9.20;99.90;;;;;;5055342;28;20065;-77
2022/11/07 00:49:17;;;;;;;1.02;1.02;;;7.40;99.90;;;;;;5038823;28;20010;-77
2022/11/07 00:51:43;;;;;;;0.20;0.20;;;9.20;99.90;;;;;;5057104;28;20026;-76
2022/11/07 00:54:09;;;;;;;3.50;3.40;;;9.20;99.90;;;;;;5056484;28;20006;-77
2022/11/07 00:56:34;;;;;;;1.85;1.85;;;9.20;99.90;;;;;;5038206;28;20040;-76
2022/11/07 00:59:00;;;;;;;1.67;1.58;;;10.00;99.90;;;;;;5063073;23;20035;-76
2022/11/07 01:01:32;;;;;;;0.57;0.57;;;9.20;99.90;;;;;;5053591;28;20092;-77
2022/11/07 01:06:48;;;;;;;0.20;0.20;;;9.20;99.90;;;;;;5076277;28;20028;-76
2022/11/07 01:09:34;;;;;;;0.25;0.25;;;9.20;99.90;;;;;;5075506;28;20043;-77
2022/11/07 01:12:03;;;;;;;0.50;0.50;;;9.20;99.90;;;;;;5056331;28;20124;-76
2022/11/07 01:14:49;;;;;;;1.77;1.70;;;9.20;99.90;;;;;;5072174;28;20012;-75
2022/11/07 01:17:17;;;;;;;3.33;3.10;;;9.20;99.90;;;;;;5056256;28;20033;-77
2022/11/07 01:20:05;;;;;;;1.27;1.27;;;9.20;99.90;;;;;;5072701;28;20084;-76
2022/11/07 01:22:34;;;;;;;14.18;13.00;;;9.20;99.90;;;;;;5075454;28;20035;-77
2022/11/07 01:25:07;;;;;;;5.32;5.05;;;9.20;99.90;;;;;;5073028;28;20025;-76
2022/11/07 01:27:53;;;;;;;0.20;0.20;;;9.20;99.90;;;;;;5074554;28;20056;-76
2022/11/07 01:30:19;;;;;;;0.20;0.20;;;9.20;99.90;;;;;;5056103;28;20013;-77
2022/11/07 01:32:44;;;;;;;7.57;7.25;;;9.20;99.90;;;;;;5073341;28;20100;-76
2022/11/07 01:35:10;;;;;;;2.85;2.75;;;9.20;99.90;;;;;;5055712;28;20077;-76
2022/11/07 01:37:36;;;;;;;8.63;8.20;;;9.20;99.90;;;;;;5072190;28;20025;-77
2022/11/07 01:40:22;;;;;;;5.88;5.57;;;9.20;99.90;;;;;;5054025;28;20033;-76
2022/11/07 01:42:47;;;;;;;0.20;0.20;;;9.30;99.90;;;;;;5072743;28;20013;-77
2022/11/07 01:45:42;;;;;;;0.20;0.20;;;9.30;99.90;;;;;;5073881;28;20048;-76
2022/11/07 01:48:08;;;;;;;2.35;2.25;;;9.30;99.90;;;;;;5072770;28;20025;-76
2022/11/07 01:50:34;;;;;;;0.77;0.77;;;9.30;99.90;;;;;;5073814;28;20288;-76
2022/11/07 01:53:23;;;;;;;4.53;4.38;;;9.30;99.90;;;;;;5072128;28;20025;-77
2022/11/07 01:55:48;;;;;;;1.02;1.02;;;9.30;99.90;;;;;;5073953;28;20021;-76
2022/11/07 01:58:14;;;;;;;14.52;13.45;;;9.30;99.90;;;;;;5073509;28;20061;-77
2022/11/07 02:00:55;;;;;;;0.20;0.20;;;9.30;99.90;;;;;;5072949;28;20013;-76
2022/11/07 02:03:45;;;;;;;5.55;5.25;;;9.30;99.90;;;;;;5073911;28;20033;-77
2022/11/07 02:06:17;;;;;;;8.20;7.78;;;9.30;99.90;;;;;;5033223;28;20034;-77
2022/11/07 02:09:09;;;;;;;1.15;1.15;;;9.30;99.90;;;;;;5031384;28;20126;-76
2022/11/07 02:11:40;;;;;;;0.20;0.20;;;9.30;99.90;;;;;;5009338;28;20379;-77
2022/11/07 02:14:13;;;;;;;0.20;0.20;;;9.30;99.90;;;;;;5004381;28;20034;-77
2022/11/07 02:16:39;;;;;;;2.45;2.35;;;9.30;99.90;;;;;;5004080;28;20030;-76
2022/11/07 02:19:11;;;;;;;0.25;0.25;;;9.20;99.90;;;;;;5003543;28;20061;-77
2022/11/07 02:21:48;;;;;;;0.20;0.20;;;9.20;99.90;;;;;;5003908;28;20057;-77
2022/11/07 02:24:27;;;;;;;2.67;2.55;;;9.10;99.90;;;;;;4987212;28;20353;-77
2022/11/07 02:26:55;;;;;;;3.60;3.50;;;9.00;99.90;;;;;;5003116;28;20065;-77
2022/11/07 02:29:25;;;;;;;0.25;0.25;;;9.00;99.90;;;;;;5002893;28;20113;-76
2022/11/07 02:32:04;;;;;;;0.22;0.22;;;8.90;99.90;;;;;;5001921;28;20049;-77
2022/11/07 02:34:31;;;;;;;0.28;0.28;;;8.80;99.90;;;;;;5001768;28;20339;-76
2022/11/07 02:36:59;;;;;;;0.20;0.20;;;8.90;99.90;;;;;;5019470;28;20080;-77
2022/11/07 02:39:25;;;;;;;0.20;0.20;;;8.80;99.90;;;;;;5026238;28;20068;-77
2022/11/07 02:41:53;;;;;;;0.57;0.57;;;8.80;99.90;;;;;;5053938;28;20005;-76
2022/11/07 02:44:19;;;;;;;0.10;0.10;;;8.80;99.90;;;;;;5058651;28;20044;-76
2022/11/07 02:46:45;;;;;;;0.30;0.30;;;8.70;99.90;;;;;;5073906;28;20076;-76
2022/11/07 02:49:11;;;;;;;34.58;31.65;;;8.70;99.90;;;;;;5073543;28;20072;-77
2022/11/07 02:51:37;;;;;;;0.20;0.20;;;8.60;99.90;;;;;;5077622;28;20012;-76
2022/11/07 02:56:58;;;;;;;0.20;0.20;;;8.70;99.90;;;;;;4800177;26;20037;-77
2022/11/07 02:59:26;;;;;;;0.20;0.20;;;8.90;99.90;;;;;;5076615;28;20100;-76
2022/11/07 03:01:52;;;;;;;0.20;0.20;;;8.70;99.90;;;;;;5071347;28;20029;-76
2022/11/07 03:04:18;;;;;;;0.20;0.20;;;8.60;99.90;;;;;;5075659;28;20013;-76
2022/11/07 03:06:43;;;;;;;4.32;4.13;;;8.60;99.90;;;;;;5059603;28;20025;-76
2022/11/07 03:09:09;;;;;;;0.20;0.20;;;8.60;99.90;;;;;;5058548;28;20043;-77
2022/11/07 03:11:35;;;;;;;4.80;4.60;;;8.50;99.90;;;;;;5076392;28;20049;-76
2022/11/07 03:14:00;;;;;;;0.10;0.10;;;8.50;99.90;;;;;;5059792;28;20032;-77
2022/11/07 03:16:26;;;;;;;0.10;0.10;;;8.50;99.90;;;;;;5076892;28;19997;-76
2022/11/07 03:18:52;;;;;;;0.30;0.30;;;8.50;99.90;;;;;;5058828;28;20013;-78
2022/11/07 03:21:18;;;;;;;0.10;0.10;;;8.50;99.90;;;;;;5077418;28;20012;-77
2022/11/07 03:23:44;;;;;;;0.15;0.15;;;8.50;99.90;;;;;;5059746;28;20125;-77
2022/11/07 03:26:10;;;;;;;0.20;0.20;;;8.60;99.90;;;;;;5059366;28;20029;-77
2022/11/07 03:28:35;;;;;;;0.45;0.45;;;8.50;99.90;;;;;;5059610;28;20024;-76
2022/11/07 03:31:03;;;;;;;0.20;0.20;;;8.50;99.90;;;;;;5055957;28;20041;-77
2022/11/07 03:33:36;;;;;;;0.22;0.22;;;8.50;99.90;;;;;;5075238;28;20005;-76
2022/11/07 03:36:08;;;;;;;0.13;0.13;;;8.50;99.90;;;;;;5059352;28;20021;-77
2022/11/07 03:38:36;;;;;;;0.10;0.10;;;8.50;99.90;;;;;;5060328;28;20013;-76
2022/11/07 03:41:02;;;;;;;0.10;0.10;;;8.50;99.90;;;;;;5076432;28;20036;-76
2022/11/07 03:43:28;;;;;;;0.20;0.20;;;8.50;99.90;;;;;;5058272;28;20123;-77
2022/11/07 03:46:20;;;;;;;0.20;0.20;;;8.40;99.90;;;;;;5056446;28;20021;-76
2022/11/07 03:48:59;;;;;;;0.10;0.10;;;8.40;99.90;;;;;;5075151;28;20036;-77
2022/11/07 03:51:27;;;;;;;0.25;0.25;;;8.40;99.90;;;;;;5073623;28;20021;-76
2022/11/07 03:53:53;;;;;;;0.30;0.30;;;8.40;99.90;;;;;;5074524;28;20013;-76
2022/11/07 03:56:38;;;;;;;0.15;0.15;;;8.50;99.90;;;;;;5070742;28;20056;-76
2022/11/07 03:59:04;;;;;;;0.20;0.20;;;8.50;99.90;;;;;;5054484;28;20108;-77
2022/11/07 04:01:32;;;;;;;0.20;0.20;;;8.50;99.90;;;;;;5073339;28;20056;-77
2022/11/07 04:03:58;;;;;;;0.15;0.15;;;8.50;99.90;;;;;;5073789;28;20048;-78
2022/11/07 04:06:24;;;;;;;1.85;1.85;;;8.60;99.90;;;;;;5074309;28;20005;-77
2022/11/07 04:08:50;;;;;;;0.10;0.10;;;8.60;99.90;;;;;;5076287;28;20021;-78
2022/11/07 04:17:52;;;;;;;0.10;0.10;;;6.80;99.90;;;;;;5076129;28;20154;-78
2022/11/07 04:20:33;;;;;;;4.68;4.47;;;8.70;99.90;;;;;;5074901;28;20051;-77
2022/11/07 04:23:10;;;;;;;0.30;0.30;;;8.80;99.90;;;;;;5074473;28;20029;-77
2022/11/07 04:28:23;;;;;;;0.10;0.10;;;8.80;99.90;;;;;;5073548;28;20020;-77
2022/11/07 04:31:10;;;;;;;0.20;0.20;;;8.80;99.90;;;;;;5074128;28;20021;-77
2022/11/07 04:33:45;;;;;;;1.55;1.55;;;8.80;99.90;;;;;;5074917;28;20021;-77
2022/11/07 04:36:13;;;;;;;0.30;0.30;;;8.80;99.90;;;;;;5056768;28;20085;-77
2022/11/07 04:38:39;;;;;;;0.20;0.20;;;8.80;99.90;;;;;;5074503;28;20073;-76
2022/11/07 04:41:26;;;;;;;0.20;0.20;;;8.90;99.90;;;;;;5057600;28;20395;-77
2022/11/07 04:43:52;;;;;;;2.10;2.00;;;8.90;99.90;;;;;;5074623;28;20021;-77
2022/11/07 04:46:18;;;;;;;0.20;0.20;;;8.80;99.90;;;;;;5073607;28;20039;-77
2022/11/07 04:49:06;;;;;;;0.98;0.93;;;8.90;99.90;;;;;;5074475;28;20036;-77
2022/11/07 04:51:32;;;;;;;3.05;2.90;;;8.90;99.90;;;;;;5074254;28;20013;-77
2022/11/07 04:53:58;;;;;;;0.10;0.10;;;8.90;99.90;;;;;;5074130;28;20012;-77
2022/11/07 04:56:26;;;;;;;0.20;0.20;;;8.90;99.90;;;;;;5073344;28;20043;-77
2022/11/07 04:58:51;;;;;;;0.20;0.20;;;8.90;99.90;;;;;;5057052;28;20036;-77
2022/11/07 05:01:20;;;;;;;0.20;0.20;;;8.90;99.90;;;;;;5072734;28;20009;-77
2022/11/07 05:03:48;;;;;;;29.60;11.95;;;9.10;99.90;;;;;;5073097;28;20124;-78
2022/11/07 05:06:14;;;;;;;0.47;0.47;;;8.90;99.90;;;;;;5071993;28;20036;-73
2022/11/07 05:08:40;;;;;;;1.13;1.13;;;8.90;99.90;;;;;;5073196;28;20013;-77
2022/11/07 05:11:05;;;;;;;0.30;0.30;;;8.80;99.90;;;;;;5056435;28;20059;-74
2022/11/07 05:13:31;;;;;;;0.60;0.60;;;8.90;99.90;;;;;;5072134;28;20021;-75
2022/11/07 05:15:57;;;;;;;4.57;4.28;;;8.90;99.90;;;;;;5072740;28;20063;-76
2022/11/07 05:18:23;;;;;;;0.20;0.20;;;8.90;99.90;;;;;;5071840;28;20040;-78
2022/11/07 05:20:51;;;;;;;0.20;0.20;;;8.90;99.90;;;;;;5054539;28;20025;-77
2022/11/07 05:23:17;;;;;;;1.65;1.55;;;6.30;99.90;;;;;;5074082;28;20051;-77
2022/11/07 05:26:09;;;;;;;0.38;0.38;;;8.90;99.90;;;;;;5053014;28;20037;-77
2022/11/07 05:28:38;;;;;;;0.10;0.10;;;8.80;99.90;;;;;;5072144;28;20009;-76
2022/11/07 05:31:05;;;;;;;0.30;0.30;;;8.80;99.90;;;;;;5071479;28;20044;-76
2022/11/07 05:33:51;;;;;;;7.10;6.80;;;8.80;99.90;;;;;;5057156;28;20017;-76
2022/11/07 05:36:20;;;;;;;0.20;0.20;;;8.80;99.90;;;;;;5074552;28;20106;-76
2022/11/07 05:39:05;;;;;;;3.58;3.42;;;8.80;99.90;;;;;;5055855;28;20036;-76
2022/11/07 05:41:31;;;;;;;10.02;9.63;;;8.80;99.90;;;;;;5072510;28;20054;-77
2022/11/07 05:46:32;;;;;;;4.70;4.50;;;8.70;99.90;;;;;;5111750;23;20055;-77
2022/11/07 05:48:58;;;;;;;0.50;0.50;;;8.70;99.90;;;;;;5068298;28;20033;-77
2022/11/07 05:51:23;;;;;;;0.20;0.20;;;8.70;99.90;;;;;;5054690;28;20035;-77
2022/11/07 05:53:49;;;;;;;0.28;0.28;;;8.70;99.90;;;;;;5072212;28;20061;-76
2022/11/07 05:56:15;;;;;;;0.20;0.20;;;8.70;99.90;;;;;;5074136;28;20081;-77
2022/11/07 05:58:40;;;;;;;7.35;4.93;;;8.70;99.90;;;;;;5073487;28;20017;-78
2022/11/07 06:01:09;;;;;;;0.10;0.10;;;8.80;99.90;;;;;;5076137;28;20025;-77
2022/11/07 06:03:35;;;;;;;0.10;0.10;;;8.70;99.90;;;;;;5069409;28;20064;-77
2022/11/07 06:06:10;;;;;;;0.20;0.20;;;8.70;99.90;;;;;;5070212;28;20017;-76
2022/11/07 06:09:00;;;;;;;0.28;0.28;;;8.70;99.90;;;;;;5072731;28;20017;-77
2022/11/07 06:11:45;;;;;;;0.20;0.20;;;8.70;99.90;;;;;;5074921;28;20009;-77
2022/11/07 06:14:14;;;;;;;0.20;0.20;;;8.70;99.90;;;;;;5076291;28;20064;-75
2022/11/07 06:16:48;;;;;;;0.40;0.40;;;8.70;99.90;;;;;;5076142;28;20051;-76
2022/11/07 06:19:14;;;;;;;0.20;0.20;;;8.50;99.90;;;;;;5075148;28;20002;-76
2022/11/07 06:21:40;;;;;;;0.20;0.20;;;8.70;99.90;;;;;;5076937;28;20025;-76
2022/11/07 06:24:06;;;;;;;0.20;0.20;;;8.70;99.90;;;;;;5075266;28;20017;-77
2022/11/07 06:26:34;;;;;;;0.43;0.43;;;8.70;99.90;;;;;;5078926;28;20009;-77
2022/11/07 06:29:24;;;;;;;0.10;0.10;;;8.70;99.90;;;;;;5079313;28;20037;-76
2022/11/07 06:31:50;;;;;;;0.20;0.20;;;8.70;99.90;;;;;;5058226;28;20037;-76
2022/11/07 06:36:54;;;;;;;16.67;15.45;;;8.70;99.90;;;;;;5061044;28;20029;-77
2022/11/07 06:39:21;;;;;;;0.25;0.25;;;8.80;99.90;;;;;;5065802;28;20242;-76
2022/11/07 06:41:50;;;;;;;3.65;3.50;;;8.80;99.90;;;;;;5043528;28;20144;-77
2022/11/07 06:44:25;;;;;;;4.57;4.47;;;8.80;99.90;;;;;;5061928;28;20017;-77
2022/11/07 06:47:14;;;;;;;0.57;0.57;;;9.00;99.90;;;;;;5075802;28;20036;-76
2022/11/07 06:49:48;;;;;;;0.20;0.20;;;8.90;99.90;;;;;;5077970;28;20005;-77
2022/11/07 06:52:17;;;;;;;0.52;0.52;;;9.00;99.90;;;;;;5076885;28;20081;-76
2022/11/07 06:54:44;;;;;;;1.10;1.10;;;9.00;99.90;;;;;;5072402;28;20001;-78
2022/11/07 06:57:11;;;;;;;0.10;0.10;;;9.10;99.90;;;;;;5077083;28;20013;-76
2022/11/07 06:59:37;;;;;;;0.30;0.30;;;9.20;99.90;;;;;;5078513;28;20005;-77
2022/11/07 07:02:03;;;;;;;0.90;0.90;;;9.20;99.90;;;;;;5077424;28;20032;-76
2022/11/07 07:04:28;;;;;;;0.95;0.95;;;9.20;99.90;;;;;;5075731;28;20036;-75
2022/11/07 07:06:54;;;;;;;0.20;0.20;;;9.30;99.90;;;;;;5060051;28;20044;-76
2022/11/07 07:09:45;;;;;;;0.20;0.20;;;9.30;99.90;;;;;;5077209;28;20033;-76
2022/11/07 07:12:11;;;;;;;0.60;0.60;;;9.30;99.90;;;;;;5078372;28;20033;-76
2022/11/07 07:14:56;;;;;;;0.20;0.20;;;9.40;99.90;;;;;;5071707;28;20157;-77
2022/11/07 07:17:23;;;;;;;0.28;0.28;;;9.50;99.90;;;;;;5069995;28;20024;-77
2022/11/07 07:19:56;;;;;;;7.45;7.03;;;9.50;99.90;;;;;;5072910;28;20051;-77
2022/11/07 07:22:23;;;;;;;0.30;0.30;;;9.60;99.90;;;;;;5071389;28;20033;-77
2022/11/07 07:24:57;;;;;;;0.22;0.22;;;9.60;99.90;;;;;;5070194;28;20237;-76
2022/11/07 07:27:22;;;;;;;0.90;0.90;;;9.60;99.90;;;;;;5072927;28;20051;-77
2022/11/07 07:29:49;;;;;;;0.30;0.30;;;9.60;99.90;;;;;;5054453;28;20041;-76
2022/11/07 07:32:25;;;;;;;0.13;0.13;;;9.60;99.90;;;;;;5070108;28;20040;-77
2022/11/07 07:35:11;;;;;;;0.20;0.20;;;9.50;99.90;;;;;;5203856;23;20016;-76
2022/11/07 07:37:37;;;;;;;3.67;3.58;;;9.50;99.90;;;;;;5122916;23;20064;-76
2022/11/07 07:40:03;;;;;;;0.20;0.20;;;9.60;99.90;;;;;;5034761;28;20638;-77
2022/11/07 07:42:35;;;;;;;0.10;0.10;;;9.60;99.90;;;;;;5048857;28;20017;-76
2022/11/07 07:58:37;;;;;;;0.20;0.20;;;9.80;99.90;;;;;;5306930;23;20053;-77
2022/11/07 08:01:09;;;;;;;0.40;0.40;;;9.90;99.90;;;;;;5066948;28;20099;-78
2022/11/07 08:03:36;;;;;;;0.20;0.20;;;9.90;99.90;;;;;;5064123;28;20112;-77
2022/11/07 08:06:22;;;;;;;0.25;0.25;;;9.90;99.90;;;;;;5056572;28;20017;-77
2022/11/07 08:08:53;;;;;;;0.20;0.20;;;9.70;99.90;;;;;;5069150;28;20036;-76
2022/11/07 08:11:26;;;;;;;0.75;0.75;;;9.90;99.90;;;;;;5072516;28;20024;-77
2022/11/07 08:14:31;;;;;;;0.20;0.20;;;9.90;99.90;;;;;;5078537;28;20029;-77
2022/11/07 08:17:23;;;;;;;0.20;0.20;;;10.00;99.90;;;;;;5075232;28;20048;-77
2022/11/07 08:19:53;;;;;;;0.50;0.50;;;10.10;99.90;;;;;;5073479;28;20073;-77
2022/11/07 08:22:19;;;;;;;0.10;0.10;;;10.10;99.90;;;;;;5058282;28;20017;-77
2022/11/07 08:24:46;;;;;;;1.60;1.55;;;10.00;99.90;;;;;;5075173;28;20021;-75
2022/11/07 08:27:18;;;;;;;0.20;0.20;;;10.10;99.90;;;;;;5075875;28;20017;-76
2022/11/07 08:29:43;;;;;;;0.30;0.30;;;10.10;99.90;;;;;;5062698;28;20021;-76
2022/11/07 08:32:11;;;;;;;0.45;0.45;;;10.10;99.90;;;;;;5054944;28;20025;-77
2022/11/07 08:34:37;;;;;;;0.70;0.70;;;7.60;99.90;;;;;;5053858;28;20126;-77
2022/11/07 08:37:04;;;;;;;0.20;0.20;;;10.10;99.90;;;;;;5035558;28;20229;-77
2022/11/07 08:39:31;;;;;;;2.58;2.47;;;10.20;99.90;;;;;;5053135;28;20021;-77
2022/11/07 08:41:59;;;;;;;0.65;0.63;;;10.10;99.90;;;;;;5053429;28;20104;-77
2022/11/07 08:44:25;;;;;;;0.65;0.65;;;10.10;99.90;;;;;;5052671;28;20120;-77
2022/11/07 08:46:50;;;;;;;0.50;0.50;;;10.10;99.90;;;;;;5034237;28;20053;-77
2022/11/07 08:49:16;;;;;;;0.20;0.20;;;10.10;99.90;;;;;;5051875;28;20029;-76
2022/11/07 08:51:42;;;;;;;2.72;2.63;;;10.10;99.90;;;;;;5034445;28;20025;-76
2022/11/07 08:54:07;;;;;;;1.88;1.85;;;10.20;99.90;;;;;;5049688;28;20092;-77
2022/11/07 08:56:36;;;;;;;3.78;3.50;;;10.10;99.90;;;;;;5053072;28;20029;-76
2022/11/07 08:59:03;;;;;;;8.88;8.35;;;10.20;99.90;;;;;;5059273;28;20029;-76
2022/11/07 09:01:31;;;;;;;0.30;0.30;;;10.20;99.90;;;;;;5075561;28;20012;-76
2022/11/07 09:04:00;;;;;;;0.22;0.22;;;10.10;99.90;;;;;;5076619;28;20037;-78
2022/11/07 09:06:27;;;;;;;0.20;0.20;;;10.20;99.90;;;;;;5074792;28;20017;-81
2022/11/07 09:08:56;;;;;;;0.20;0.20;;;10.20;99.90;;;;;;5075471;28;20036;-78
2022/11/07 09:11:23;;;;;;;0.20;0.20;;;10.20;99.90;;;;;;5076251;28;20036;-77
2022/11/07 09:14:08;;;;;;;6.15;5.88;;;10.30;99.90;;;;;;5075368;28;20013;-77
2022/11/07 09:16:34;;;;;;;0.20;0.20;;;10.20;99.90;;;;;;5073598;28;20037;-77
2022/11/07 09:19:26;;;;;;;0.20;0.20;;;10.20;99.90;;;;;;5073317;28;20047;-77
2022/11/07 09:22:30;;;;;;;2.25;2.08;;;10.40;99.90;;;;;;5056923;28;20020;-76
2022/11/07 09:24:55;;;;;;;10.60;9.60;;;10.30;99.90;;;;;;5059395;28;20024;-77
2022/11/07 09:27:31;;;;;;;0.10;0.10;;;10.30;99.90;;;;;;5076576;28;20006;-76
2022/11/07 09:30:19;;;;;;;0.20;0.20;;;10.30;99.90;;;;;;5076067;28;20039;-77
2022/11/07 09:33:05;;;;;;;0.20;0.20;;;10.30;99.90;;;;;;5076517;28;20036;-77
2022/11/07 09:35:32;;;;;;;0.10;0.10;;;10.40;99.90;;;;;;5073948;28;20053;-76
2022/11/07 09:37:58;;;;;;;0.10;0.10;;;10.40;99.90;;;;;;5074881;28;20096;-77
2022/11/07 09:40:53;;;;;;;0.20;0.20;;;10.30;99.90;;;;;;5076120;28;20040;-77
2022/11/07 09:46:52;;;;;;;0.20;0.20;;;10.40;99.90;;;;;;5082905;23;20075;-79
2022/11/07 09:50:00;;;;;;;0.30;0.30;;;10.60;99.90;;;;;;5079277;28;20005;-76
2022/11/07 09:53:01;;;;;;;0.20;0.20;;;10.40;99.90;;;;;;5094801;28;20115;-76
2022/11/07 09:55:41;;;;;;;0.32;0.32;;;8.60;99.90;;;;;;5078405;28;20029;-76
2022/11/07 09:58:40;;;;;;;0.40;0.40;;;10.20;99.90;;;;;;5092779;28;20060;-76
2022/11/07 10:01:51;;;;;;;0.20;0.20;;;10.50;99.90;;;;;;5081843;28;20029;-77
2022/11/07 10:04:21;;;;;;;0.13;0.13;;;10.50;99.90;;;;;;5081685;28;20044;-76
2022/11/07 10:07:25;;;;;;;0.17;0.17;;;10.60;99.90;;;;;;5100255;28;20024;-76
2022/11/07 10:10:24;;;;;;;0.20;0.20;;;10.60;99.90;;;;;;5099121;28;20051;-76
2022/11/07 10:13:08;;;;;;;2.53;2.40;;;10.80;99.90;;;;;;5003422;28;20010;-77
2022/11/07 10:33:53;;;;;;;0.20;0.20;;;10.60;99.90;;;;;;4805080;26;20060;-76
2022/11/07 10:36:58;;;;;;;0.63;0.63;;;10.70;99.90;;;;;;5062469;28;20069;-75
2022/11/07 10:39:40;;;;;;;1.95;1.85;;;10.70;99.90;;;;;;5060720;28;20096;-76
2022/11/07 10:42:08;;;;;;;1.60;1.55;;;10.70;99.90;;;;;;5079608;28;20036;-75
2022/11/07 10:44:57;;;;;;;0.10;0.10;;;10.80;99.90;;;;;;5078714;28;20031;-75
2022/11/07 10:47:34;;;;;;;0.20;0.20;;;10.80;99.90;;;;;;5079478;28;20005;-75
2022/11/07 10:50:15;;;;;;;0.20;0.20;;;10.90;99.90;;;;;;5062330;28;20028;-77
2022/11/07 10:53:08;;;;;;;0.20;0.20;;;10.90;99.90;;;;;;5063678;28;20012;-76
2022/11/07 10:56:11;;;;;;;0.35;0.35;;;11.00;99.90;;;;;;5079606;28;20005;-77
2022/11/07 10:58:56;;;;;;;0.20;0.20;;;11.20;99.90;;;;;;5078140;28;20032;-84
2022/11/07 11:01:29;;;;;;;0.30;0.30;;;11.60;99.90;;;;;;5074788;28;20055;-79
2022/11/07 11:03:55;;;;;;;0.20;0.20;;;11.30;99.90;;;;;;5062060;28;20036;-75
2022/11/07 11:06:52;;;;;;;0.20;0.20;;;11.30;99.90;;;;;;5062781;28;20020;-76
2022/11/07 11:09:18;;;;;;;0.10;0.10;;;11.30;99.90;;;;;;5079246;28;20017;-75
2022/11/07 11:12:09;;;;;;;0.30;0.30;;;11.20;99.90;;;;;;5080167;28;20021;-75
2022/11/07 11:14:40;;;;;;;0.30;0.30;;;11.20;99.90;;;;;;5077454;28;20013;-75
2022/11/07 11:17:27;;;;;;;0.20;0.20;;;11.10;99.90;;;;;;5045578;28;20017;-76
2022/11/07 11:49:28;;;;;;;0.20;0.20;;;11.30;99.90;;;;;;520058;26;20316;-77
2022/11/07 11:52:11;;;;;;;0.10;0.10;;;11.30;99.90;;;;;;4993219;28;20038;-74
2022/11/07 11:54:37;;;;;;;3.92;2.28;;;11.40;99.90;;;;;;4977757;28;20027;-80
2022/11/07 11:57:22;;;;;;;0.20;0.20;;;11.30;99.90;;;;;;4978055;28;20019;-77
2022/11/07 12:00:24;;;;;;;0.50;0.50;;;11.40;99.90;;;;;;4976562;28;20022;-76
2022/11/07 12:03:11;;;;;;;0.38;0.38;;;11.30;99.90;;;;;;4976962;28;20022;-74
2022/11/07 12:06:13;;;;;;;0.75;0.73;;;11.30;99.90;;;;;;4976783;28;20042;-74
2022/11/07 12:09:08;;;;;;;1.95;1.85;;;11.20;99.90;;;;;;4977581;28;20028;-78
2022/11/07 12:11:39;;;;;;;0.20;0.20;;;11.10;99.90;;;;;;4977355;28;20010;-74
2022/11/07 12:14:17;;;;;;;0.20;0.20;;;11.20;99.90;;;;;;4979537;28;20096;-75
2022/11/07 12:17:07;;;;;;;0.35;0.35;;;11.10;99.90;;;;;;4952650;29;20093;-76
2022/11/07 12:19:56;;;;;;;0.20;0.20;;;12.90;99.90;;;;;;4945226;29;20082;-76
2022/11/07 12:22:46;;;;;;;0.20;0.20;;;11.00;99.90;;;;;;4944057;28;20038;-76
2022/11/07 12:25:12;;;;;;;0.22;0.22;;;11.10;99.90;;;;;;4942654;29;20042;-76
2022/11/07 12:28:01;;;;;;;1.33;1.33;;;11.10;99.90;;;;;;4958544;28;20027;-76
2022/11/07 12:30:41;;;;;;;4.55;4.22;;;11.10;99.90;;;;;;4951441;28;20035;-78
2022/11/07 12:33:18;;;;;;;0.20;0.20;;;11.10;99.90;;;;;;4978556;28;20003;-76
2022/11/07 12:36:29;;;;;;;0.20;0.20;;;11.00;99.90;;;;;;4978001;28;20022;-76
2022/11/07 12:39:14;;;;;;;0.20;0.20;;;10.90;99.90;;;;;;4938251;29;20028;-76
2022/11/07 12:42:07;;;;;;;0.20;0.20;;;13.20;99.90;;;;;;4922441;29;20080;-76
2022/11/07 12:44:45;;;;;;;0.10;0.10;;;11.00;99.90;;;;;;4999242;23;20060;-75
2022/11/07 12:47:40;;;;;;;0.20;0.20;;;11.10;99.90;;;;;;5010950;23;20070;-76
2022/11/07 12:50:22;;;;;;;3.05;2.92;;;7.70;99.90;;;;;;4918680;29;20036;-75
2022/11/07 12:53:06;;;;;;;6.93;6.53;;;9.50;99.90;;;;;;4906718;29;20008;-76
2022/11/07 12:56:30;;;;;;;0.20;0.20;;;10.90;99.90;;;;;;4928398;29;20528;-75
2022/11/07 12:58:58;;;;;;;0.85;0.85;;;10.80;99.90;;;;;;4899868;29;20069;-76
2022/11/07 13:01:55;;;;;;;0.20;0.20;;;10.90;99.90;;;;;;4906013;29;20028;-76
2022/11/07 13:05:18;;;;;;;0.65;0.65;;;10.80;99.90;;;;;;4892448;29;20027;-75
2022/11/07 13:07:59;;;;;;;0.20;0.20;;;10.60;99.90;;;;;;4852977;29;20037;-76
2022/11/07 13:10:41;;;;;;;0.20;0.20;;;10.60;99.90;;;;;;4845997;29;20038;-76
2022/11/07 13:13:35;;;;;;;0.17;0.17;;;10.60;99.90;;;;;;4845904;29;20038;-76
2022/11/07 13:16:29;;;;;;;0.22;0.22;;;10.40;99.90;;;;;;4828882;29;20129;-75
2022/11/07 13:19:06;;;;;;;4.13;3.83;;;10.60;99.90;;;;;;4861348;29;20034;-75
2022/11/07 13:22:04;;;;;;;0.20;0.20;;;10.60;99.90;;;;;;4858880;29;20107;-75
2022/11/07 13:25:24;;;;;;;0.35;0.35;;;10.50;99.90;;;;;;4847514;29;20041;-75
2022/11/07 13:27:55;;;;;;;0.20;0.20;;;10.60;99.90;;;;;;4840564;29;20034;-76
2022/11/07 13:30:39;;;;;;;0.80;0.80;;;10.60;99.90;;;;;;4841432;29;20046;-76
2022/11/07 13:33:26;;;;;;;0.20;0.20;;;9.60;99.90;;;;;;4860290;29;20266;-76
2022/11/07 13:36:26;;;;;;;1.15;1.15;;;10.50;99.90;;;;;;4909174;29;20061;-76
2022/11/07 13:38:55;;;;;;;0.40;0.40;;;10.50;99.90;;;;;;4972298;23;20030;-77
2022/11/07 13:41:22;;;;;;;0.25;0.25;;;10.20;99.90;;;;;;5008648;28;20038;-77
2022/11/07 13:43:55;;;;;;;0.20;0.20;;;10.50;99.90;;;;;;5013402;28;20053;-77
2022/11/07 13:46:41;;;;;;;2.00;2.00;;;10.60;99.90;;;;;;5010685;28;20003;-77
2022/11/07 13:49:37;;;;;;;0.20;0.20;;;10.40;99.90;;;;;;4997631;28;20102;-75
2022/11/07 13:52:36;;;;;;;0.43;0.38;;;10.40;99.90;;;;;;5014290;28;20022;-75
2022/11/07 13:55:13;;;;;;;0.30;0.30;;;10.40;99.90;;;;;;5009336;28;20023;-77
2022/11/07 13:58:08;;;;;;;0.20;0.20;;;12.50;99.90;;;;;;5011974;28;20030;-78
2022/11/07 14:00:37;;;;;;;0.20;0.20;;;10.20;99.90;;;;;;5008729;28;20044;-76
2022/11/07 14:04:25;;;;;;;0.20;0.20;;;10.30;99.90;;;;;;4989312;28;20105;-77
2022/11/07 14:19:35;;;;;;;0.40;0.40;;;10.30;99.90;;;;;;5010830;28;20038;-76
2022/11/07 14:22:02;;;;;;;0.30;0.30;;;10.30;99.90;;;;;;4984391;28;20028;-76
2022/11/07 14:24:32;;;;;;;0.20;0.20;;;10.30;99.90;;;;;;5003199;28;20034;-76
2022/11/07 14:27:18;;;;;;;0.40;0.40;;;10.40;99.90;;;;;;5004197;28;20202;-76
2022/11/07 14:30:15;;;;;;;6.63;6.28;;;10.40;99.90;;;;;;5005100;28;20014;-76
2022/11/07 14:32:58;;;;;;;5.40;4.97;;;10.40;99.90;;;;;;4989105;28;20023;-77
2022/11/07 14:35:29;;;;;;;1.30;1.30;;;9.30;99.90;;;;;;4986241;28;20098;-77
2022/11/07 14:37:58;;;;;;;2.17;2.13;;;10.30;99.90;;;;;;4969692;28;20090;-75
2022/11/07 14:40:25;;;;;;;0.20;0.20;;;10.40;99.90;;;;;;4987045;28;20145;-76
2022/11/07 14:42:52;;;;;;;1.05;1.05;;;10.30;99.90;;;;;;4984745;28;20030;-77
2022/11/07 14:45:20;;;;;;;3.70;3.50;;;10.30;99.90;;;;;;4967147;28;20042;-76
2022/11/07 14:47:50;;;;;;;0.22;0.22;;;10.30;99.90;;;;;;5009011;28;20042;-76
2022/11/07 14:50:23;;;;;;;0.10;0.10;;;10.20;99.90;;;;;;4997328;28;20059;-76
2022/11/07 14:52:52;;;;;;;0.10;0.10;;;10.20;99.90;;;;;;5018007;28;20009;-76
2022/11/07 14:55:27;;;;;;;0.20;0.20;;;10.20;99.90;;;;;;4999191;28;20022;-75
2022/11/07 14:57:53;;;;;;;0.25;0.25;;;10.10;99.90;;;;;;5017087;28;20007;-76
2022/11/07 15:00:23;;;;;;;0.20;0.20;;;10.10;99.90;;;;;;4997003;28;20043;-74
2022/11/07 15:02:57;;;;;;;17.25;15.90;;;10.20;99.90;;;;;;5015197;28;20019;-77
2022/11/07 15:05:30;;;;;;;0.20;0.20;;;10.20;99.90;;;;;;5018233;28;20014;-76
2022/11/07 15:08:22;;;;;;;2.67;2.58;;;10.10;99.90;;;;;;5062027;23;20057;-77
2022/11/07 15:11:13;;;;;;;0.20;0.20;;;10.20;99.90;;;;;;5018543;28;20025;-76
2022/11/07 15:13:46;;;;;;;0.93;0.93;;;10.30;99.90;;;;;;5026976;23;20084;-77